sensor_id;sensor_type;location;lat;lon;timestamp;temperature;humidity
11304;DHT22;5707;49.588;12.148;2022-07-29T00:01:15;17.50;99.90
11304;DHT22;5707;49.588;12.148;2022-07-29T00:03:56;17.40;99.90
11304;DHT22;5707;49.588;12.148;2022-07-29T00:06:36;17.40;99.90
11304;DHT22;5707;49.588;12.148;2022-07-29T00:09:16;17.40;99.90
11304;DHT22;5707;49.588;12.148;2022-07-29T00:11:56;17.30;99.90
11304;DHT22;5707;49.588;12.148;2022-07-29T00:14:39;17.30;99.90
11304;DHT22;5707;49.588;12.148;2022-07-29T00:17:18;17.20;99.90
11304;DHT22;5707;49.588;12.148;2022-07-29T00:19:58;17.20;99.90
11304;DHT22;5707;49.588;12.148;2022-07-29T00:22:39;17.20;99.90
11304;DHT22;5707;49.588;12.148;2022-07-29T00:25:20;17.20;99.90
11304;DHT22;5707;49.588;12.148;2022-07-29T00:27:59;17.10;99.90
11304;DHT22;5707;49.588;12.148;2022-07-29T00:30:39;17.10;99.90
11304;DHT22;5707;49.588;12.148;2022-07-29T00:33:21;17.00;99.90
11304;DHT22;5707;49.588;12.148;2022-07-29T00:36:02;16.90;99.90
11304;DHT22;5707;49.588;12.148;2022-07-29T00:38:42;16.90;99.90
11304;DHT22;5707;49.588;12.148;2022-07-29T00:41:23;16.90;99.90
11304;DHT22;5707;49.588;12.148;2022-07-29T00:44:03;16.90;99.90
11304;DHT22;5707;49.588;12.148;2022-07-29T00:46:43;16.90;99.90
11304;DHT22;5707;49.588;12.148;2022-07-29T00:49:23;16.90;99.90
11304;DHT22;5707;49.588;12.148;2022-07-29T00:52:03;16.90;99.90
11304;DHT22;5707;49.588;12.148;2022-07-29T00:54:44;17.10;99.90
11304;DHT22;5707;49.588;12.148;2022-07-29T00:57:24;17.30;99.90
11304;DHT22;5707;49.588;12.148;2022-07-29T01:00:04;17.40;99.90
11304;DHT22;5707;49.588;12.148;2022-07-29T01:02:45;17.50;99.90
11304;DHT22;5707;49.588;12.148;2022-07-29T01:05:27;17.50;99.90
11304;DHT22;5707;49.588;12.148;2022-07-29T01:08:08;17.60;99.90
11304;DHT22;5707;49.588;12.148;2022-07-29T01:10:48;17.50;99.90
11304;DHT22;5707;49.588;12.148;2022-07-29T01:13:30;17.60;99.90
11304;DHT22;5707;49.588;12.148;2022-07-29T01:16:15;17.60;99.90
11304;DHT22;5707;49.588;12.148;2022-07-29T01:18:59;17.60;99.90
11304;DHT22;5707;49.588;12.148;2022-07-29T01:21:47;17.70;99.90
11304;DHT22;5707;49.588;12.148;2022-07-29T01:24:43;17.70;99.90
11304;DHT22;5707;49.588;12.148;2022-07-29T01:27:32;17.70;99.90
11304;DHT22;5707;49.588;12.148;2022-07-29T01:30:13;17.70;99.90
11304;DHT22;5707;49.588;12.148;2022-07-29T01:32:56;17.70;99.90
11304;DHT22;5707;49.588;12.148;2022-07-29T01:35:39;17.90;98.70
11304;DHT22;5707;49.588;12.148;2022-07-29T01:38:20;18.00;99.20
11304;DHT22;5707;49.588;12.148;2022-07-29T01:41:02;18.00;98.20
11304;DHT22;5707;49.588;12.148;2022-07-29T01:43:47;18.10;95.10
11304;DHT22;5707;49.588;12.148;2022-07-29T01:46:31;18.10;93.30
11304;DHT22;5707;49.588;12.148;2022-07-29T01:49:15;18.20;94.40
11304;DHT22;5707;49.588;12.148;2022-07-29T01:51:57;18.30;90.80
11304;DHT22;5707;49.588;12.148;2022-07-29T01:54:38;18.40;91.70
11304;DHT22;5707;49.588;12.148;2022-07-29T01:57:23;18.40;92.30
11304;DHT22;5707;49.588;12.148;2022-07-29T02:00:05;18.30;92.20
11304;DHT22;5707;49.588;12.148;2022-07-29T02:02:51;18.30;85.10
11304;DHT22;5707;49.588;12.148;2022-07-29T02:05:32;18.30;93.10
11304;DHT22;5707;49.588;12.148;2022-07-29T02:08:14;18.30;93.70
11304;DHT22;5707;49.588;12.148;2022-07-29T02:10:54;18.30;91.50
11304;DHT22;5707;49.588;12.148;2022-07-29T02:13:35;18.40;95.80
11304;DHT22;5707;49.588;12.148;2022-07-29T02:16:17;18.40;91.60
11304;DHT22;5707;49.588;12.148;2022-07-29T02:18:58;18.50;87.20
11304;DHT22;5707;49.588;12.148;2022-07-29T02:21:39;18.50;89.50
11304;DHT22;5707;49.588;12.148;2022-07-29T02:24:21;18.50;82.90
11304;DHT22;5707;49.588;12.148;2022-07-29T02:27:02;18.60;77.80
11304;DHT22;5707;49.588;12.148;2022-07-29T02:29:44;18.70;75.80
11304;DHT22;5707;49.588;12.148;2022-07-29T02:32:25;18.60;76.90
11304;DHT22;5707;49.588;12.148;2022-07-29T02:35:05;18.60;74.80
11304;DHT22;5707;49.588;12.148;2022-07-29T02:37:46;18.60;73.70
11304;DHT22;5707;49.588;12.148;2022-07-29T02:40:47;18.60;73.80
11304;DHT22;5707;49.588;12.148;2022-07-29T02:43:29;18.70;73.70
11304;DHT22;5707;49.588;12.148;2022-07-29T02:46:11;18.70;73.00
11304;DHT22;5707;49.588;12.148;2022-07-29T02:48:55;18.70;74.10
11304;DHT22;5707;49.588;12.148;2022-07-29T02:51:39;18.60;74.90
11304;DHT22;5707;49.588;12.148;2022-07-29T02:54:25;18.60;76.50
11304;DHT22;5707;49.588;12.148;2022-07-29T02:57:06;18.60;80.10
11304;DHT22;5707;49.588;12.148;2022-07-29T02:59:50;18.60;80.30
11304;DHT22;5707;49.588;12.148;2022-07-29T03:02:32;18.50;82.60
11304;DHT22;5707;49.588;12.148;2022-07-29T03:05:15;18.50;80.10
11304;DHT22;5707;49.588;12.148;2022-07-29T03:07:58;18.40;80.40
11304;DHT22;5707;49.588;12.148;2022-07-29T03:10:42;18.40;82.70
11304;DHT22;5707;49.588;12.148;2022-07-29T03:13:23;18.30;85.10
11304;DHT22;5707;49.588;12.148;2022-07-29T03:16:05;18.20;90.40
11304;DHT22;5707;49.588;12.148;2022-07-29T03:18:46;18.20;88.40
11304;DHT22;5707;49.588;12.148;2022-07-29T03:21:26;18.20;89.90
11304;DHT22;5707;49.588;12.148;2022-07-29T03:24:06;18.10;91.90
11304;DHT22;5707;49.588;12.148;2022-07-29T03:26:46;18.00;93.30
11304;DHT22;5707;49.588;12.148;2022-07-29T03:29:26;18.00;93.90
11304;DHT22;5707;49.588;12.148;2022-07-29T03:32:07;17.90;95.50
11304;DHT22;5707;49.588;12.148;2022-07-29T03:34:47;17.90;96.30
11304;DHT22;5707;49.588;12.148;2022-07-29T03:37:27;17.80;97.60
11304;DHT22;5707;49.588;12.148;2022-07-29T03:40:09;17.80;98.70
11304;DHT22;5707;49.588;12.148;2022-07-29T03:42:49;17.70;99.90
11304;DHT22;5707;49.588;12.148;2022-07-29T03:45:31;17.60;99.90
11304;DHT22;5707;49.588;12.148;2022-07-29T03:48:13;17.50;99.90
11304;DHT22;5707;49.588;12.148;2022-07-29T03:50:55;17.50;99.90
11304;DHT22;5707;49.588;12.148;2022-07-29T03:53:35;17.50;99.90
11304;DHT22;5707;49.588;12.148;2022-07-29T03:56:15;17.40;99.90
11304;DHT22;5707;49.588;12.148;2022-07-29T03:58:56;17.30;99.90
11304;DHT22;5707;49.588;12.148;2022-07-29T04:01:38;17.40;99.90
11304;DHT22;5707;49.588;12.148;2022-07-29T04:04:18;17.30;99.90
11304;DHT22;5707;49.588;12.148;2022-07-29T04:06:58;17.40;99.90
11304;DHT22;5707;49.588;12.148;2022-07-29T04:09:37;17.40;99.90
11304;DHT22;5707;49.588;12.148;2022-07-29T04:12:17;17.50;99.90
11304;DHT22;5707;49.588;12.148;2022-07-29T04:14:59;17.60;99.90
11304;DHT22;5707;49.588;12.148;2022-07-29T04:17:38;17.70;99.90
11304;DHT22;5707;49.588;12.148;2022-07-29T04:20:18;17.70;99.90
11304;DHT22;5707;49.588;12.148;2022-07-29T04:22:58;17.80;99.90
11304;DHT22;5707;49.588;12.148;2022-07-29T04:25:38;17.90;99.90
11304;DHT22;5707;49.588;12.148;2022-07-29T04:28:18;18.00;99.90
11304;DHT22;5707;49.588;12.148;2022-07-29T04:30:58;18.00;99.90
11304;DHT22;5707;49.588;12.148;2022-07-29T04:33:38;18.00;99.90
11304;DHT22;5707;49.588;12.148;2022-07-29T04:36:17;18.00;99.90
11304;DHT22;5707;49.588;12.148;2022-07-29T04:38:57;18.10;99.90
11304;DHT22;5707;49.588;12.148;2022-07-29T04:41:37;18.20;99.90
11304;DHT22;5707;49.588;12.148;2022-07-29T04:44:17;18.30;99.90
11304;DHT22;5707;49.588;12.148;2022-07-29T04:46:57;18.40;99.90
11304;DHT22;5707;49.588;12.148;2022-07-29T04:49:38;18.40;99.90
11304;DHT22;5707;49.588;12.148;2022-07-29T04:52:18;18.50;99.90
11304;DHT22;5707;49.588;12.148;2022-07-29T04:54:58;18.50;99.50
11304;DHT22;5707;49.588;12.148;2022-07-29T04:57:37;18.60;99.90
11304;DHT22;5707;49.588;12.148;2022-07-29T05:00:17;18.70;99.90
11304;DHT22;5707;49.588;12.148;2022-07-29T05:02:57;18.80;99.90
11304;DHT22;5707;49.588;12.148;2022-07-29T05:05:37;18.80;98.40
11304;DHT22;5707;49.588;12.148;2022-07-29T05:08:18;18.90;99.00
11304;DHT22;5707;49.588;12.148;2022-07-29T05:10:58;18.80;99.10
11304;DHT22;5707;49.588;12.148;2022-07-29T05:13:38;18.90;99.60
11304;DHT22;5707;49.588;12.148;2022-07-29T05:16:18;18.90;99.90
11304;DHT22;5707;49.588;12.148;2022-07-29T05:18:58;18.90;98.90
11304;DHT22;5707;49.588;12.148;2022-07-29T05:21:38;18.90;99.70
11304;DHT22;5707;49.588;12.148;2022-07-29T05:24:17;18.90;98.80
11304;DHT22;5707;49.588;12.148;2022-07-29T05:26:57;18.90;97.70
11304;DHT22;5707;49.588;12.148;2022-07-29T05:29:37;18.90;96.90
11304;DHT22;5707;49.588;12.148;2022-07-29T05:32:17;18.90;99.90
11304;DHT22;5707;49.588;12.148;2022-07-29T05:34:57;18.80;99.90
11304;DHT22;5707;49.588;12.148;2022-07-29T05:37:36;18.80;99.90
11304;DHT22;5707;49.588;12.148;2022-07-29T05:40:16;18.90;99.90
11304;DHT22;5707;49.588;12.148;2022-07-29T05:42:56;19.00;99.90
11304;DHT22;5707;49.588;12.148;2022-07-29T05:45:36;19.10;99.90
11304;DHT22;5707;49.588;12.148;2022-07-29T05:48:17;19.30;97.90
11304;DHT22;5707;49.588;12.148;2022-07-29T05:50:57;19.40;96.10
11304;DHT22;5707;49.588;12.148;2022-07-29T05:53:37;19.50;94.90
11304;DHT22;5707;49.588;12.148;2022-07-29T05:56:17;19.60;93.10
11304;DHT22;5707;49.588;12.148;2022-07-29T05:58:57;19.70;91.70
11304;DHT22;5707;49.588;12.148;2022-07-29T06:01:37;19.80;91.50
11304;DHT22;5707;49.588;12.148;2022-07-29T06:04:18;19.90;91.10
11304;DHT22;5707;49.588;12.148;2022-07-29T06:06:58;20.00;91.30
11304;DHT22;5707;49.588;12.148;2022-07-29T06:09:38;20.20;90.00
11304;DHT22;5707;49.588;12.148;2022-07-29T06:12:17;20.40;86.60
11304;DHT22;5707;49.588;12.148;2022-07-29T06:14:57;20.50;84.60
11304;DHT22;5707;49.588;12.148;2022-07-29T06:17:37;20.60;81.10
11304;DHT22;5707;49.588;12.148;2022-07-29T06:20:17;20.60;80.60
11304;DHT22;5707;49.588;12.148;2022-07-29T06:22:58;20.60;80.10
11304;DHT22;5707;49.588;12.148;2022-07-29T06:25:39;20.50;77.00
11304;DHT22;5707;49.588;12.148;2022-07-29T06:28:20;20.40;77.50
11304;DHT22;5707;49.588;12.148;2022-07-29T06:30:59;20.50;85.20
11304;DHT22;5707;49.588;12.148;2022-07-29T06:33:39;20.50;82.50
11304;DHT22;5707;49.588;12.148;2022-07-29T06:36:19;20.60;80.90
11304;DHT22;5707;49.588;12.148;2022-07-29T06:38:59;20.50;81.30
11304;DHT22;5707;49.588;12.148;2022-07-29T06:41:39;20.50;79.70
11304;DHT22;5707;49.588;12.148;2022-07-29T06:44:22;20.40;80.00
11304;DHT22;5707;49.588;12.148;2022-07-29T06:47:03;20.30;81.60
11304;DHT22;5707;49.588;12.148;2022-07-29T06:49:43;20.40;82.20
11304;DHT22;5707;49.588;12.148;2022-07-29T06:52:23;20.50;80.60
11304;DHT22;5707;49.588;12.148;2022-07-29T06:55:05;20.70;80.50
11304;DHT22;5707;49.588;12.148;2022-07-29T06:57:46;21.00;79.30
11304;DHT22;5707;49.588;12.148;2022-07-29T07:00:26;21.20;78.20
11304;DHT22;5707;49.588;12.148;2022-07-29T07:03:06;21.40;76.50
11304;DHT22;5707;49.588;12.148;2022-07-29T07:05:45;21.70;74.40
11304;DHT22;5707;49.588;12.148;2022-07-29T07:08:25;21.90;71.60
11304;DHT22;5707;49.588;12.148;2022-07-29T07:11:05;22.00;69.50
11304;DHT22;5707;49.588;12.148;2022-07-29T07:13:46;22.00;69.70
11304;DHT22;5707;49.588;12.148;2022-07-29T07:16:26;22.10;69.20
11304;DHT22;5707;49.588;12.148;2022-07-29T07:19:06;22.20;67.80
11304;DHT22;5707;49.588;12.148;2022-07-29T07:21:46;22.40;66.90
11304;DHT22;5707;49.588;12.148;2022-07-29T07:24:26;22.80;65.40
11304;DHT22;5707;49.588;12.148;2022-07-29T07:27:06;23.10;63.00
11304;DHT22;5707;49.588;12.148;2022-07-29T07:29:45;23.50;60.40
11304;DHT22;5707;49.588;12.148;2022-07-29T07:32:25;23.80;57.70
11304;DHT22;5707;49.588;12.148;2022-07-29T07:35:06;24.00;57.10
11304;DHT22;5707;49.588;12.148;2022-07-29T07:37:47;24.50;55.70
11304;DHT22;5707;49.588;12.148;2022-07-29T07:40:26;24.70;54.30
11304;DHT22;5707;49.588;12.148;2022-07-29T07:43:06;25.00;53.00
11304;DHT22;5707;49.588;12.148;2022-07-29T07:45:46;25.10;51.60
11304;DHT22;5707;49.588;12.148;2022-07-29T07:48:26;25.20;51.50
11304;DHT22;5707;49.588;12.148;2022-07-29T07:51:06;25.20;51.40
11304;DHT22;5707;49.588;12.148;2022-07-29T07:53:45;25.20;50.30
11304;DHT22;5707;49.588;12.148;2022-07-29T07:56:28;25.50;50.70
11304;DHT22;5707;49.588;12.148;2022-07-29T07:59:08;25.70;49.70
11304;DHT22;5707;49.588;12.148;2022-07-29T08:01:50;25.90;49.30
11304;DHT22;5707;49.588;12.148;2022-07-29T08:04:29;26.00;49.40
11304;DHT22;5707;49.588;12.148;2022-07-29T08:07:09;25.80;48.30
11304;DHT22;5707;49.588;12.148;2022-07-29T08:09:49;25.90;48.50
11304;DHT22;5707;49.588;12.148;2022-07-29T08:12:29;26.00;48.00
11304;DHT22;5707;49.588;12.148;2022-07-29T08:15:09;26.00;48.10
11304;DHT22;5707;49.588;12.148;2022-07-29T08:17:49;25.90;48.00
11304;DHT22;5707;49.588;12.148;2022-07-29T08:20:28;25.80;48.70
11304;DHT22;5707;49.588;12.148;2022-07-29T08:23:10;25.80;49.30
11304;DHT22;5707;49.588;12.148;2022-07-29T08:25:50;26.00;49.00
11304;DHT22;5707;49.588;12.148;2022-07-29T08:28:29;26.20;48.20
11304;DHT22;5707;49.588;12.148;2022-07-29T08:31:09;26.20;48.00
11304;DHT22;5707;49.588;12.148;2022-07-29T08:33:49;26.20;48.60
11304;DHT22;5707;49.588;12.148;2022-07-29T08:36:29;26.30;48.00
11304;DHT22;5707;49.588;12.148;2022-07-29T08:39:09;26.30;48.40
11304;DHT22;5707;49.588;12.148;2022-07-29T08:41:49;26.40;47.70
11304;DHT22;5707;49.588;12.148;2022-07-29T08:44:30;26.60;48.70
11304;DHT22;5707;49.588;12.148;2022-07-29T08:47:12;26.80;48.00
11304;DHT22;5707;49.588;12.148;2022-07-29T08:49:53;27.00;48.30
11304;DHT22;5707;49.588;12.148;2022-07-29T08:52:34;27.30;46.60
11304;DHT22;5707;49.588;12.148;2022-07-29T08:55:16;27.40;46.40
11304;DHT22;5707;49.588;12.148;2022-07-29T08:57:57;27.10;46.40
11304;DHT22;5707;49.588;12.148;2022-07-29T09:00:41;26.80;47.10
11304;DHT22;5707;49.588;12.148;2022-07-29T09:03:22;26.70;47.30
11304;DHT22;5707;49.588;12.148;2022-07-29T09:06:03;26.70;47.60
11304;DHT22;5707;49.588;12.148;2022-07-29T09:08:45;26.80;48.50
11304;DHT22;5707;49.588;12.148;2022-07-29T09:11:24;27.10;47.10
11304;DHT22;5707;49.588;12.148;2022-07-29T09:14:04;27.40;46.90
11304;DHT22;5707;49.588;12.148;2022-07-29T09:16:51;27.90;46.80
11304;DHT22;5707;49.588;12.148;2022-07-29T09:19:32;27.90;46.70
11304;DHT22;5707;49.588;12.148;2022-07-29T09:22:28;27.60;47.50
11304;DHT22;5707;49.588;12.148;2022-07-29T09:25:08;27.90;47.30
11304;DHT22;5707;49.588;12.148;2022-07-29T09:27:49;28.70;45.80
11304;DHT22;5707;49.588;12.148;2022-07-29T09:30:29;28.80;45.60
11304;DHT22;5707;49.588;12.148;2022-07-29T09:33:09;28.80;45.20
11304;DHT22;5707;49.588;12.148;2022-07-29T09:35:59;28.60;44.90
11304;DHT22;5707;49.588;12.148;2022-07-29T09:38:39;28.20;46.30
11304;DHT22;5707;49.588;12.148;2022-07-29T09:41:19;27.70;46.80
11304;DHT22;5707;49.588;12.148;2022-07-29T09:43:59;27.70;49.10
11304;DHT22;5707;49.588;12.148;2022-07-29T09:46:41;27.90;47.60
11304;DHT22;5707;49.588;12.148;2022-07-29T09:49:32;28.30;47.10
11304;DHT22;5707;49.588;12.148;2022-07-29T09:52:13;28.70;46.70
11304;DHT22;5707;49.588;12.148;2022-07-29T09:54:53;28.80;47.30
11304;DHT22;5707;49.588;12.148;2022-07-29T09:57:35;28.70;46.00
11304;DHT22;5707;49.588;12.148;2022-07-29T10:00:16;28.40;47.10
11304;DHT22;5707;49.588;12.148;2022-07-29T10:02:58;28.60;47.40
11304;DHT22;5707;49.588;12.148;2022-07-29T10:05:40;29.00;47.30
11304;DHT22;5707;49.588;12.148;2022-07-29T10:08:25;29.30;46.20
11304;DHT22;5707;49.588;12.148;2022-07-29T10:11:11;29.20;45.50
11304;DHT22;5707;49.588;12.148;2022-07-29T10:13:51;29.30;46.70
11304;DHT22;5707;49.588;12.148;2022-07-29T10:16:31;29.30;45.80
11304;DHT22;5707;49.588;12.148;2022-07-29T10:19:12;29.30;45.60
11304;DHT22;5707;49.588;12.148;2022-07-29T10:21:52;29.30;45.10
11304;DHT22;5707;49.588;12.148;2022-07-29T10:24:32;29.30;45.10
11304;DHT22;5707;49.588;12.148;2022-07-29T10:27:12;29.20;46.50
11304;DHT22;5707;49.588;12.148;2022-07-29T10:29:51;29.10;45.80
11304;DHT22;5707;49.588;12.148;2022-07-29T10:32:46;28.90;47.10
11304;DHT22;5707;49.588;12.148;2022-07-29T10:35:31;28.80;46.50
11304;DHT22;5707;49.588;12.148;2022-07-29T10:38:34;29.00;46.20
11304;DHT22;5707;49.588;12.148;2022-07-29T10:41:25;29.00;46.20
11304;DHT22;5707;49.588;12.148;2022-07-29T10:44:14;29.00;45.10
11304;DHT22;5707;49.588;12.148;2022-07-29T10:46:56;28.90;45.60
11304;DHT22;5707;49.588;12.148;2022-07-29T10:49:36;28.90;45.70
11304;DHT22;5707;49.588;12.148;2022-07-29T10:52:16;29.10;45.30
11304;DHT22;5707;49.588;12.148;2022-07-29T10:54:57;29.20;45.10
11304;DHT22;5707;49.588;12.148;2022-07-29T10:57:38;29.10;45.70
11304;DHT22;5707;49.588;12.148;2022-07-29T11:00:26;29.00;44.90
11304;DHT22;5707;49.588;12.148;2022-07-29T11:03:06;28.80;44.80
11304;DHT22;5707;49.588;12.148;2022-07-29T11:05:52;28.70;44.80
11304;DHT22;5707;49.588;12.148;2022-07-29T11:08:32;28.90;44.40
11304;DHT22;5707;49.588;12.148;2022-07-29T11:14:19;29.40;40.80
11304;DHT22;5707;49.588;12.148;2022-07-29T11:17:20;29.30;40.90
11304;DHT22;5707;49.588;12.148;2022-07-29T11:22:54;29.20;39.10
11304;DHT22;5707;49.588;12.148;2022-07-29T11:25:34;29.10;39.30
11304;DHT22;5707;49.588;12.148;2022-07-29T11:28:15;29.00;39.00
11304;DHT22;5707;49.588;12.148;2022-07-29T11:30:57;28.90;40.30
11304;DHT22;5707;49.588;12.148;2022-07-29T11:33:38;29.20;41.00
11304;DHT22;5707;49.588;12.148;2022-07-29T11:36:18;29.40;40.50
11304;DHT22;5707;49.588;12.148;2022-07-29T11:41:52;30.10;39.40
11304;DHT22;5707;49.588;12.148;2022-07-29T11:47:26;30.20;37.80
11304;DHT22;5707;49.588;12.148;2022-07-29T11:50:08;30.40;38.20
11304;DHT22;5707;49.588;12.148;2022-07-29T11:52:49;30.40;37.80
11304;DHT22;5707;49.588;12.148;2022-07-29T11:55:28;30.30;37.30
11304;DHT22;5707;49.588;12.148;2022-07-29T11:58:10;30.30;36.90
11304;DHT22;5707;49.588;12.148;2022-07-29T12:00:50;30.10;35.60
11304;DHT22;5707;49.588;12.148;2022-07-29T12:03:30;29.80;36.30
11304;DHT22;5707;49.588;12.148;2022-07-29T12:06:12;29.70;36.20
11304;DHT22;5707;49.588;12.148;2022-07-29T12:08:52;29.50;36.00
11304;DHT22;5707;49.588;12.148;2022-07-29T12:11:32;29.40;35.90
11304;DHT22;5707;49.588;12.148;2022-07-29T12:14:25;29.10;36.10
11304;DHT22;5707;49.588;12.148;2022-07-29T12:17:05;28.90;38.00
11304;DHT22;5707;49.588;12.148;2022-07-29T12:19:44;29.10;36.50
11304;DHT22;5707;49.588;12.148;2022-07-29T12:22:28;29.30;38.60
11304;DHT22;5707;49.588;12.148;2022-07-29T12:25:10;29.40;38.50
11304;DHT22;5707;49.588;12.148;2022-07-29T12:27:58;29.90;38.20
11304;DHT22;5707;49.588;12.148;2022-07-29T12:30:39;29.90;37.60
11304;DHT22;5707;49.588;12.148;2022-07-29T12:33:20;30.10;37.90
11304;DHT22;5707;49.588;12.148;2022-07-29T12:36:02;30.30;37.80
11304;DHT22;5707;49.588;12.148;2022-07-29T12:38:42;30.70;36.50
11304;DHT22;5707;49.588;12.148;2022-07-29T12:41:22;31.10;36.20
11304;DHT22;5707;49.588;12.148;2022-07-29T12:44:02;31.60;36.10
11304;DHT22;5707;49.588;12.148;2022-07-29T12:46:42;31.60;35.20
11304;DHT22;5707;49.588;12.148;2022-07-29T12:49:25;31.20;36.50
11304;DHT22;5707;49.588;12.148;2022-07-29T12:54:59;30.40;36.20
11304;DHT22;5707;49.588;12.148;2022-07-29T12:57:50;30.30;37.00
11304;DHT22;5707;49.588;12.148;2022-07-29T13:00:30;30.50;36.90
11304;DHT22;5707;49.588;12.148;2022-07-29T13:03:10;30.70;36.70
11304;DHT22;5707;49.588;12.148;2022-07-29T13:05:50;30.90;36.50
11304;DHT22;5707;49.588;12.148;2022-07-29T13:08:29;31.00;35.70
11304;DHT22;5707;49.588;12.148;2022-07-29T13:11:26;31.20;35.60
11304;DHT22;5707;49.588;12.148;2022-07-29T13:14:07;31.60;34.30
11304;DHT22;5707;49.588;12.148;2022-07-29T13:17:01;31.70;34.20
11304;DHT22;5707;49.588;12.148;2022-07-29T13:19:41;31.90;34.10
11304;DHT22;5707;49.588;12.148;2022-07-29T13:22:23;32.10;33.40
11304;DHT22;5707;49.588;12.148;2022-07-29T13:25:04;32.50;32.60
11304;DHT22;5707;49.588;12.148;2022-07-29T13:27:45;32.90;32.50
11304;DHT22;5707;49.588;12.148;2022-07-29T13:30:25;33.00;32.70
11304;DHT22;5707;49.588;12.148;2022-07-29T13:33:05;32.90;33.20
11304;DHT22;5707;49.588;12.148;2022-07-29T13:35:44;32.30;33.50
11304;DHT22;5707;49.588;12.148;2022-07-29T13:38:26;32.30;34.40
11304;DHT22;5707;49.588;12.148;2022-07-29T13:41:06;32.20;34.80
11304;DHT22;5707;49.588;12.148;2022-07-29T13:43:46;32.10;34.50
11304;DHT22;5707;49.588;12.148;2022-07-29T13:46:25;31.70;35.30
11304;DHT22;5707;49.588;12.148;2022-07-29T13:49:05;31.30;36.10
11304;DHT22;5707;49.588;12.148;2022-07-29T13:51:45;30.70;36.90
11304;DHT22;5707;49.588;12.148;2022-07-29T13:54:25;30.10;38.20
11304;DHT22;5707;49.588;12.148;2022-07-29T13:57:05;29.60;39.10
11304;DHT22;5707;49.588;12.148;2022-07-29T13:59:45;29.20;40.50
11304;DHT22;5707;49.588;12.148;2022-07-29T14:02:24;28.80;41.90
11304;DHT22;5707;49.588;12.148;2022-07-29T14:05:05;28.60;42.30
11304;DHT22;5707;49.588;12.148;2022-07-29T14:07:46;28.50;48.20
11304;DHT22;5707;49.588;12.148;2022-07-29T14:10:25;28.20;50.80
11304;DHT22;5707;49.588;12.148;2022-07-29T14:13:05;27.80;56.00
11304;DHT22;5707;49.588;12.148;2022-07-29T14:15:45;27.50;65.90
11304;DHT22;5707;49.588;12.148;2022-07-29T14:18:25;27.00;95.50
11304;DHT22;5707;49.588;12.148;2022-07-29T14:21:05;26.20;99.90
11304;DHT22;5707;49.588;12.148;2022-07-29T14:23:45;25.70;99.90
11304;DHT22;5707;49.588;12.148;2022-07-29T14:26:24;25.30;99.90
11304;DHT22;5707;49.588;12.148;2022-07-29T14:29:04;24.90;99.90
11304;DHT22;5707;49.588;12.148;2022-07-29T14:31:44;24.30;99.90
11304;DHT22;5707;49.588;12.148;2022-07-29T14:34:24;23.90;99.90
11304;DHT22;5707;49.588;12.148;2022-07-29T14:37:04;23.60;99.90
11304;DHT22;5707;49.588;12.148;2022-07-29T14:39:45;23.30;99.90
11304;DHT22;5707;49.588;12.148;2022-07-29T14:42:25;23.10;99.90
11304;DHT22;5707;49.588;12.148;2022-07-29T14:45:06;22.90;99.90
11304;DHT22;5707;49.588;12.148;2022-07-29T14:47:46;22.70;99.90
11304;DHT22;5707;49.588;12.148;2022-07-29T14:50:28;22.20;99.90
11304;DHT22;5707;49.588;12.148;2022-07-29T14:53:08;21.40;99.90
11304;DHT22;5707;49.588;12.148;2022-07-29T14:55:47;20.70;99.90
11304;DHT22;5707;49.588;12.148;2022-07-29T14:58:27;20.30;99.90
11304;DHT22;5707;49.588;12.148;2022-07-29T15:01:07;20.00;99.90
11304;DHT22;5707;49.588;12.148;2022-07-29T15:03:47;19.90;99.90
11304;DHT22;5707;49.588;12.148;2022-07-29T15:06:27;19.60;99.90
11304;DHT22;5707;49.588;12.148;2022-07-29T15:09:07;19.50;99.90
11304;DHT22;5707;49.588;12.148;2022-07-29T15:11:46;19.30;99.90
11304;DHT22;5707;49.588;12.148;2022-07-29T15:14:26;19.20;99.90
11304;DHT22;5707;49.588;12.148;2022-07-29T15:17:06;18.20;99.90
11304;DHT22;5707;49.588;12.148;2022-07-29T15:19:46;17.80;99.90
11304;DHT22;5707;49.588;12.148;2022-07-29T15:22:26;17.70;99.90
11304;DHT22;5707;49.588;12.148;2022-07-29T15:25:06;17.60;99.90
11304;DHT22;5707;49.588;12.148;2022-07-29T15:27:47;17.70;99.90
11304;DHT22;5707;49.588;12.148;2022-07-29T15:30:27;17.70;99.90
11304;DHT22;5707;49.588;12.148;2022-07-29T15:33:07;17.90;99.90
11304;DHT22;5707;49.588;12.148;2022-07-29T15:35:48;18.10;99.90
11304;DHT22;5707;49.588;12.148;2022-07-29T15:38:28;18.10;99.90
11304;DHT22;5707;49.588;12.148;2022-07-29T15:41:08;18.30;99.90
11304;DHT22;5707;49.588;12.148;2022-07-29T15:43:48;18.40;99.90
11304;DHT22;5707;49.588;12.148;2022-07-29T15:46:29;18.60;99.90
11304;DHT22;5707;49.588;12.148;2022-07-29T15:49:26;18.80;99.90
11304;DHT22;5707;49.588;12.148;2022-07-29T15:52:09;18.90;99.90
11304;DHT22;5707;49.588;12.148;2022-07-29T15:54:49;19.00;99.90
11304;DHT22;5707;49.588;12.148;2022-07-29T15:57:29;19.10;99.90
11304;DHT22;5707;49.588;12.148;2022-07-29T16:00:09;19.30;99.90
11304;DHT22;5707;49.588;12.148;2022-07-29T16:02:50;19.40;99.90
11304;DHT22;5707;49.588;12.148;2022-07-29T16:05:30;19.40;99.90
11304;DHT22;5707;49.588;12.148;2022-07-29T16:08:10;19.40;99.90
11304;DHT22;5707;49.588;12.148;2022-07-29T16:10:50;19.50;99.90
11304;DHT22;5707;49.588;12.148;2022-07-29T16:13:30;19.40;99.90
11304;DHT22;5707;49.588;12.148;2022-07-29T16:16:09;19.40;99.90
11304;DHT22;5707;49.588;12.148;2022-07-29T16:18:49;19.30;99.90
11304;DHT22;5707;49.588;12.148;2022-07-29T16:21:29;19.10;99.90
11304;DHT22;5707;49.588;12.148;2022-07-29T16:24:10;18.70;99.90
11304;DHT22;5707;49.588;12.148;2022-07-29T16:26:50;18.60;99.90
11304;DHT22;5707;49.588;12.148;2022-07-29T16:29:30;18.40;99.90
11304;DHT22;5707;49.588;12.148;2022-07-29T16:32:10;18.40;99.90
11304;DHT22;5707;49.588;12.148;2022-07-29T16:34:50;18.40;99.90
11304;DHT22;5707;49.588;12.148;2022-07-29T16:37:30;18.40;99.90
11304;DHT22;5707;49.588;12.148;2022-07-29T16:40:13;18.50;99.90
11304;DHT22;5707;49.588;12.148;2022-07-29T16:42:52;18.60;99.90
11304;DHT22;5707;49.588;12.148;2022-07-29T16:45:32;18.70;99.90
11304;DHT22;5707;49.588;12.148;2022-07-29T16:48:12;18.70;99.90
11304;DHT22;5707;49.588;12.148;2022-07-29T16:50:52;18.80;99.90
11304;DHT22;5707;49.588;12.148;2022-07-29T16:53:32;18.80;99.90
11304;DHT22;5707;49.588;12.148;2022-07-29T16:56:12;18.80;99.90
11304;DHT22;5707;49.588;12.148;2022-07-29T16:58:51;18.80;99.90
11304;DHT22;5707;49.588;12.148;2022-07-29T17:01:31;18.80;99.90
11304;DHT22;5707;49.588;12.148;2022-07-29T17:04:13;18.80;99.90
11304;DHT22;5707;49.588;12.148;2022-07-29T17:06:54;18.70;99.90
11304;DHT22;5707;49.588;12.148;2022-07-29T17:09:34;18.60;99.90
11304;DHT22;5707;49.588;12.148;2022-07-29T17:12:14;18.60;99.90